sensor_id;sensor_type;location;lat;lon;timestamp;pressure;altitude;pressure_sealevel;temperature;humidity
39075;BME280;24826;52.070;20.970;2023-04-19T00:03:01;62333.31;;;-147.04;51.81
39075;BME280;24826;52.070;20.970;2023-04-19T00:05:46;62327.38;;;-147.04;51.62
39075;BME280;24826;52.070;20.970;2023-04-19T00:08:31;62321.41;;;-147.04;51.69
39075;BME280;24826;52.070;20.970;2023-04-19T00:11:16;62299.53;;;-147.04;51.67
39075;BME280;24826;52.070;20.970;2023-04-19T00:14:00;62343.28;;;-147.04;51.56
39075;BME280;24826;52.070;20.970;2023-04-19T00:16:44;62305.47;;;-147.04;51.57
39075;BME280;24826;52.070;20.970;2023-04-19T00:19:28;62311.44;;;-147.04;51.71
39075;BME280;24826;52.070;20.970;2023-04-19T00:22:13;62331.34;;;-147.04;51.56
39075;BME280;24826;52.070;20.970;2023-04-19T00:24:57;62309.47;;;-147.04;51.53
39075;BME280;24826;52.070;20.970;2023-04-19T00:27:41;62325.38;;;-147.04;51.63
39075;BME280;24826;52.070;20.970;2023-04-19T00:30:26;62281.63;;;-147.04;51.59
39075;BME280;24826;52.070;20.970;2023-04-19T00:33:10;62331.34;;;-147.04;51.60
39075;BME280;24826;52.070;20.970;2023-04-19T00:35:55;62301.50;;;-147.04;51.53
39075;BME280;24826;52.070;20.970;2023-04-19T00:38:40;62277.63;;;-147.04;51.38
39075;BME280;24826;52.070;20.970;2023-04-19T00:41:24;62347.25;;;-147.04;51.51
39075;BME280;24826;52.070;20.970;2023-04-19T00:44:09;62303.50;;;-147.04;51.33
39075;BME280;24826;52.070;20.970;2023-04-19T00:46:54;62339.28;;;-147.04;51.27
39075;BME280;24826;52.070;20.970;2023-04-19T00:49:40;62315.44;;;-147.04;51.43
39075;BME280;24826;52.070;20.970;2023-04-19T00:52:24;62289.56;;;-147.04;51.30
39075;BME280;24826;52.070;20.970;2023-04-19T00:55:09;62311.44;;;-147.04;51.20
39075;BME280;24826;52.070;20.970;2023-04-19T00:57:53;62315.44;;;-147.04;51.16
39075;BME280;24826;52.070;20.970;2023-04-19T01:00:38;62287.59;;;-147.04;51.24
39075;BME280;24826;52.070;20.970;2023-04-19T01:03:22;62299.53;;;-147.04;51.08
39075;BME280;24826;52.070;20.970;2023-04-19T01:06:07;62313.44;;;-147.04;51.27
39075;BME280;24826;52.070;20.970;2023-04-19T01:08:51;62311.44;;;-147.04;51.26
39075;BME280;24826;52.070;20.970;2023-04-19T01:11:35;62291.56;;;-147.04;51.03
39075;BME280;24826;52.070;20.970;2023-04-19T01:14:19;62331.34;;;-147.04;51.09
39075;BME280;24826;52.070;20.970;2023-04-19T01:17:05;62309.47;;;-147.04;51.09
39075;BME280;24826;52.070;20.970;2023-04-19T01:19:58;62339.28;;;-147.04;51.12
39075;BME280;24826;52.070;20.970;2023-04-19T01:22:42;62303.50;;;-147.04;51.18
39075;BME280;24826;52.070;20.970;2023-04-19T01:25:27;62291.56;;;-147.04;51.04
39075;BME280;24826;52.070;20.970;2023-04-19T01:28:12;62309.47;;;-147.04;51.12
39075;BME280;24826;52.070;20.970;2023-04-19T01:30:56;62323.38;;;-147.04;50.93
39075;BME280;24826;52.070;20.970;2023-04-19T01:33:41;62265.72;;;-147.04;50.99
39075;BME280;24826;52.070;20.970;2023-04-19T01:36:26;62299.53;;;-147.04;51.05
39075;BME280;24826;52.070;20.970;2023-04-19T01:39:11;62309.47;;;-147.04;50.97
39075;BME280;24826;52.070;20.970;2023-04-19T01:41:54;62283.59;;;-147.04;50.77
39075;BME280;24826;52.070;20.970;2023-04-19T01:44:39;62289.56;;;-147.04;50.83
39075;BME280;24826;52.070;20.970;2023-04-19T01:47:23;62283.59;;;-147.04;50.86
39075;BME280;24826;52.070;20.970;2023-04-19T01:50:08;62291.56;;;-147.04;50.88
39075;BME280;24826;52.070;20.970;2023-04-19T01:52:53;62331.34;;;-147.04;50.73
39075;BME280;24826;52.070;20.970;2023-04-19T01:55:38;62315.44;;;-147.04;50.78
39075;BME280;24826;52.070;20.970;2023-04-19T01:58:22;62303.50;;;-147.04;50.84
39075;BME280;24826;52.070;20.970;2023-04-19T02:01:06;62259.75;;;-147.04;50.64
39075;BME280;24826;52.070;20.970;2023-04-19T02:03:56;62273.66;;;-147.04;50.81
39075;BME280;24826;52.070;20.970;2023-04-19T02:06:40;62297.53;;;-147.04;50.81
39075;BME280;24826;52.070;20.970;2023-04-19T02:09:24;62303.50;;;-147.04;50.81
39075;BME280;24826;52.070;20.970;2023-04-19T02:12:09;62325.38;;;-147.04;50.67
39075;BME280;24826;52.070;20.970;2023-04-19T02:14:54;62299.53;;;-147.04;50.67
39075;BME280;24826;52.070;20.970;2023-04-19T02:17:43;62267.69;;;-147.04;50.77
39075;BME280;24826;52.070;20.970;2023-04-19T02:20:29;62259.75;;;-147.04;50.62
39075;BME280;24826;52.070;20.970;2023-04-19T02:23:14;62319.41;;;-147.04;50.58
39075;BME280;24826;52.070;20.970;2023-04-19T02:25:59;62289.56;;;-147.04;50.56
39075;BME280;24826;52.070;20.970;2023-04-19T02:28:45;62277.63;;;-147.04;50.64
39075;BME280;24826;52.070;20.970;2023-04-19T02:31:30;62315.44;;;-147.04;50.71
39075;BME280;24826;52.070;20.970;2023-04-19T02:34:14;62303.50;;;-147.04;50.67
39075;BME280;24826;52.070;20.970;2023-04-19T02:36:59;62295.53;;;-147.04;50.57
39075;BME280;24826;52.070;20.970;2023-04-19T02:39:44;62307.47;;;-147.04;50.50
39075;BME280;24826;52.070;20.970;2023-04-19T02:42:29;62273.66;;;-147.04;50.56
39075;BME280;24826;52.070;20.970;2023-04-19T02:45:13;62283.59;;;-147.04;50.56
39075;BME280;24826;52.070;20.970;2023-04-19T02:47:58;62305.47;;;-147.04;50.54
39075;BME280;24826;52.070;20.970;2023-04-19T02:50:43;62287.59;;;-147.04;50.48
39075;BME280;24826;52.070;20.970;2023-04-19T02:53:27;62253.78;;;-147.04;50.56
39075;BME280;24826;52.070;20.970;2023-04-19T02:56:11;62323.38;;;-147.04;50.38
39075;BME280;24826;52.070;20.970;2023-04-19T02:58:59;62273.66;;;-147.04;50.38
39075;BME280;24826;52.070;20.970;2023-04-19T03:01:44;62299.53;;;-147.04;50.40
39075;BME280;24826;52.070;20.970;2023-04-19T03:04:28;62253.78;;;-147.04;50.30
39075;BME280;24826;52.070;20.970;2023-04-19T03:07:14;62279.63;;;-147.04;50.24
39075;BME280;24826;52.070;20.970;2023-04-19T03:09:59;62289.56;;;-147.04;50.30
39075;BME280;24826;52.070;20.970;2023-04-19T03:12:43;62287.59;;;-147.04;50.34
39075;BME280;24826;52.070;20.970;2023-04-19T03:15:28;62267.69;;;-147.04;50.20
39075;BME280;24826;52.070;20.970;2023-04-19T03:18:12;62271.66;;;-147.04;50.20
39075;BME280;24826;52.070;20.970;2023-04-19T03:20:57;62281.63;;;-147.04;50.19
39075;BME280;24826;52.070;20.970;2023-04-19T03:23:42;62251.78;;;-147.04;50.23
39075;BME280;24826;52.070;20.970;2023-04-19T03:26:26;62279.63;;;-147.04;50.62
39075;BME280;24826;52.070;20.970;2023-04-19T03:29:11;62273.66;;;-147.04;50.20
39075;BME280;24826;52.070;20.970;2023-04-19T03:31:55;62257.75;;;-147.04;50.25
39075;BME280;24826;52.070;20.970;2023-04-19T03:34:40;62297.53;;;-147.04;50.17
39075;BME280;24826;52.070;20.970;2023-04-19T03:37:24;62271.66;;;-147.04;50.27
39075;BME280;24826;52.070;20.970;2023-04-19T03:40:09;62251.78;;;-147.04;50.12
39075;BME280;24826;52.070;20.970;2023-04-19T03:42:53;62265.72;;;-147.04;50.01
39075;BME280;24826;52.070;20.970;2023-04-19T03:45:38;62289.56;;;-147.04;50.06
39075;BME280;24826;52.070;20.970;2023-04-19T03:48:22;62309.47;;;-147.04;50.10
39075;BME280;24826;52.070;20.970;2023-04-19T03:51:06;62271.66;;;-147.04;50.15
39075;BME280;24826;52.070;20.970;2023-04-19T03:53:51;62301.50;;;-147.04;50.02
39075;BME280;24826;52.070;20.970;2023-04-19T03:56:35;62275.66;;;-147.04;50.09
39075;BME280;24826;52.070;20.970;2023-04-19T03:59:20;62323.38;;;-147.04;49.97
39075;BME280;24826;52.070;20.970;2023-04-19T04:02:05;62263.72;;;-147.04;50.01
39075;BME280;24826;52.070;20.970;2023-04-19T04:04:53;62281.63;;;-147.04;49.99
39075;BME280;24826;52.070;20.970;2023-04-19T04:07:38;62265.72;;;-147.04;50.04
39075;BME280;24826;52.070;20.970;2023-04-19T04:10:22;62315.44;;;-147.04;49.96
39075;BME280;24826;52.070;20.970;2023-04-19T04:13:07;62275.66;;;-147.04;49.76
39075;BME280;24826;52.070;20.970;2023-04-19T04:15:51;62468.56;;;-147.04;49.96
39075;BME280;24826;52.070;20.970;2023-04-19T04:18:35;62267.69;;;-147.04;49.99
39075;BME280;24826;52.070;20.970;2023-04-19T04:21:20;62247.81;;;-147.04;50.16
39075;BME280;24826;52.070;20.970;2023-04-19T04:24:05;62259.75;;;-147.04;50.13
39075;BME280;24826;52.070;20.970;2023-04-19T04:26:50;62285.59;;;-147.04;50.25
39075;BME280;24826;52.070;20.970;2023-04-19T04:29:36;62271.66;;;-147.04;50.54
39075;BME280;24826;52.070;20.970;2023-04-19T04:32:21;62255.75;;;-147.04;50.52
39075;BME280;24826;52.070;20.970;2023-04-19T04:35:07;62263.72;;;-147.04;50.67
39075;BME280;24826;52.070;20.970;2023-04-19T04:37:52;62301.50;;;-147.04;50.54
39075;BME280;24826;52.070;20.970;2023-04-19T04:40:39;62299.53;;;-147.04;50.67
39075;BME280;24826;52.070;20.970;2023-04-19T04:43:25;62293.56;;;-147.04;50.49
39075;BME280;24826;52.070;20.970;2023-04-19T04:46:12;62311.44;;;-147.04;50.67
39075;BME280;24826;52.070;20.970;2023-04-19T04:48:56;62271.66;;;-147.04;50.66
39075;BME280;24826;52.070;20.970;2023-04-19T04:51:40;62289.56;;;-147.04;50.51
39075;BME280;24826;52.070;20.970;2023-04-19T04:54:25;62299.53;;;-147.04;50.06
39075;BME280;24826;52.070;20.970;2023-04-19T04:57:09;62255.75;;;-147.04;50.91
39075;BME280;24826;52.070;20.970;2023-04-19T04:59:54;62253.78;;;-147.04;51.40
39075;BME280;24826;52.070;20.970;2023-04-19T05:02:39;62267.69;;;-147.04;51.24
39075;BME280;24826;52.070;20.970;2023-04-19T05:05:24;62283.59;;;-147.04;51.59
39075;BME280;24826;52.070;20.970;2023-04-19T05:08:08;62271.66;;;-147.04;51.32
39075;BME280;24826;52.070;20.970;2023-04-19T05:10:53;62247.81;;;-147.04;51.45
39075;BME280;24826;52.070;20.970;2023-04-19T05:13:37;62287.59;;;-147.04;51.36
39075;BME280;24826;52.070;20.970;2023-04-19T05:16:22;62245.81;;;-147.04;51.27
39075;BME280;24826;52.070;20.970;2023-04-19T05:19:06;62269.69;;;-147.04;51.23
39075;BME280;24826;52.070;20.970;2023-04-19T05:21:51;62267.69;;;-147.04;51.35
39075;BME280;24826;52.070;20.970;2023-04-19T05:24:36;62247.81;;;-147.04;51.17
39075;BME280;24826;52.070;20.970;2023-04-19T05:27:20;62315.44;;;-147.04;51.16
39075;BME280;24826;52.070;20.970;2023-04-19T05:30:05;62251.78;;;-147.04;51.25
39075;BME280;24826;52.070;20.970;2023-04-19T05:32:49;62297.53;;;-147.04;51.19
39075;BME280;24826;52.070;20.970;2023-04-19T05:35:35;62271.66;;;-147.04;51.20
39075;BME280;24826;52.070;20.970;2023-04-19T05:38:19;62275.66;;;-147.04;51.18
39075;BME280;24826;52.070;20.970;2023-04-19T05:41:04;62263.72;;;-147.04;51.14
39075;BME280;24826;52.070;20.970;2023-04-19T05:43:49;62269.69;;;-147.04;51.20
39075;BME280;24826;52.070;20.970;2023-04-19T05:46:33;62265.72;;;-147.04;51.17
39075;BME280;24826;52.070;20.970;2023-04-19T05:49:18;62283.59;;;-147.04;51.21
39075;BME280;24826;52.070;20.970;2023-04-19T05:52:03;62281.63;;;-147.04;51.00
39075;BME280;24826;52.070;20.970;2023-04-19T05:54:47;62311.44;;;-147.04;51.02
39075;BME280;24826;52.070;20.970;2023-04-19T05:57:32;62247.81;;;-147.04;51.04
39075;BME280;24826;52.070;20.970;2023-04-19T06:00:16;62275.66;;;-147.04;51.04
39075;BME280;24826;52.070;20.970;2023-04-19T06:03:00;62303.50;;;-147.04;51.09
39075;BME280;24826;52.070;20.970;2023-04-19T06:05:44;62263.72;;;-147.04;50.99
39075;BME280;24826;52.070;20.970;2023-04-19T06:08:29;62247.81;;;-147.04;50.95
39075;BME280;24826;52.070;20.970;2023-04-19T06:11:15;62261.72;;;-147.04;50.92
39075;BME280;24826;52.070;20.970;2023-04-19T06:13:59;62285.59;;;-147.04;51.01
39075;BME280;24826;52.070;20.970;2023-04-19T06:16:43;62283.59;;;-147.04;51.15
39075;BME280;24826;52.070;20.970;2023-04-19T06:19:28;62267.69;;;-147.04;50.83
39075;BME280;24826;52.070;20.970;2023-04-19T06:22:12;62271.66;;;-147.04;50.84
39075;BME280;24826;52.070;20.970;2023-04-19T06:24:57;62285.59;;;-147.04;50.93
39075;BME280;24826;52.070;20.970;2023-04-19T06:27:41;62235.88;;;-147.04;50.95
39075;BME280;24826;52.070;20.970;2023-04-19T06:30:25;62295.53;;;-147.04;50.83
39075;BME280;24826;52.070;20.970;2023-04-19T06:33:10;62275.66;;;-147.04;50.80
39075;BME280;24826;52.070;20.970;2023-04-19T06:35:54;62259.75;;;-147.04;50.63
39075;BME280;24826;52.070;20.970;2023-04-19T06:38:38;62259.75;;;-147.04;50.82
39075;BME280;24826;52.070;20.970;2023-04-19T06:41:25;62251.78;;;-147.04;50.62
39075;BME280;24826;52.070;20.970;2023-04-19T06:44:10;62291.56;;;-147.04;50.68
39075;BME280;24826;52.070;20.970;2023-04-19T06:46:54;62259.75;;;-147.04;50.76
39075;BME280;24826;52.070;20.970;2023-04-19T06:49:38;62275.66;;;-147.04;50.67
39075;BME280;24826;52.070;20.970;2023-04-19T06:52:23;62279.63;;;-147.04;50.60
39075;BME280;24826;52.070;20.970;2023-04-19T06:55:08;62267.69;;;-147.04;50.67
39075;BME280;24826;52.070;20.970;2023-04-19T06:57:53;62271.66;;;-147.04;50.63
39075;BME280;24826;52.070;20.970;2023-04-19T07:00:37;62307.47;;;-147.04;50.57
39075;BME280;24826;52.070;20.970;2023-04-19T07:03:21;62285.59;;;-147.04;50.55
39075;BME280;24826;52.070;20.970;2023-04-19T07:06:06;62279.63;;;-147.04;50.54
39075;BME280;24826;52.070;20.970;2023-04-19T07:08:50;62259.75;;;-147.04;50.64
39075;BME280;24826;52.070;20.970;2023-04-19T07:11:35;62273.66;;;-147.04;50.53
39075;BME280;24826;52.070;20.970;2023-04-19T07:14:19;62267.69;;;-147.04;50.37
39075;BME280;24826;52.070;20.970;2023-04-19T07:17:03;62263.72;;;-147.04;50.46
39075;BME280;24826;52.070;20.970;2023-04-19T07:19:49;62285.59;;;-147.04;50.41
39075;BME280;24826;52.070;20.970;2023-04-19T07:22:33;62239.84;;;-147.04;50.45
39075;BME280;24826;52.070;20.970;2023-04-19T07:25:17;62295.53;;;-147.04;50.44
39075;BME280;24826;52.070;20.970;2023-04-19T07:28:01;62277.63;;;-147.04;50.41
39075;BME280;24826;52.070;20.970;2023-04-19T07:30:46;62255.75;;;-147.04;50.38
39075;BME280;24826;52.070;20.970;2023-04-19T07:33:31;62237.88;;;-147.04;50.28
39075;BME280;24826;52.070;20.970;2023-04-19T07:36:15;62257.75;;;-147.04;50.38
39075;BME280;24826;52.070;20.970;2023-04-19T07:38:59;62287.59;;;-147.04;50.28
39075;BME280;24826;52.070;20.970;2023-04-19T07:41:44;62287.59;;;-147.04;50.31
39075;BME280;24826;52.070;20.970;2023-04-19T07:44:29;62196.09;;;-147.04;50.33
39075;BME280;24826;52.070;20.970;2023-04-19T07:47:14;62261.72;;;-147.04;50.29
39075;BME280;24826;52.070;20.970;2023-04-19T07:49:58;62261.72;;;-147.04;50.30
39075;BME280;24826;52.070;20.970;2023-04-19T07:52:42;62281.63;;;-147.04;50.21
39075;BME280;24826;52.070;20.970;2023-04-19T07:55:27;62279.63;;;-147.04;50.53
39075;BME280;24826;52.070;20.970;2023-04-19T07:58:11;62277.63;;;-147.04;50.28
39075;BME280;24826;52.070;20.970;2023-04-19T08:00:55;62271.66;;;-147.04;50.16
39075;BME280;24826;52.070;20.970;2023-04-19T08:03:40;62259.75;;;-147.04;50.15
39075;BME280;24826;52.070;20.970;2023-04-19T08:06:25;62255.75;;;-147.04;50.02
39075;BME280;24826;52.070;20.970;2023-04-19T08:09:10;62275.66;;;-147.04;50.21
39075;BME280;24826;52.070;20.970;2023-04-19T08:11:54;62271.66;;;-147.04;50.04
39075;BME280;24826;52.070;20.970;2023-04-19T08:14:40;62265.72;;;-147.04;50.14
39075;BME280;24826;52.070;20.970;2023-04-19T08:17:26;62287.59;;;-147.04;50.15
39075;BME280;24826;52.070;20.970;2023-04-19T08:20:10;62261.72;;;-147.04;50.15
39075;BME280;24826;52.070;20.970;2023-04-19T08:22:55;62227.91;;;-147.04;50.14
39075;BME280;24826;52.070;20.970;2023-04-19T08:25:39;62267.69;;;-147.04;50.17
39075;BME280;24826;52.070;20.970;2023-04-19T08:28:24;62263.72;;;-147.04;49.84
39075;BME280;24826;52.070;20.970;2023-04-19T08:31:09;62261.72;;;-147.04;50.07
39075;BME280;24826;52.070;20.970;2023-04-19T08:33:53;62247.81;;;-147.04;50.17
39075;BME280;24826;52.070;20.970;2023-04-19T08:36:37;62291.56;;;-147.04;50.06
39075;BME280;24826;52.070;20.970;2023-04-19T08:39:21;62219.97;;;-147.04;50.06
39075;BME280;24826;52.070;20.970;2023-04-19T08:42:07;62257.75;;;-147.04;50.03
39075;BME280;24826;52.070;20.970;2023-04-19T08:44:53;62275.66;;;-147.04;49.96
39075;BME280;24826;52.070;20.970;2023-04-19T08:47:40;62424.81;;;-147.04;50.07
39075;BME280;24826;52.070;20.970;2023-04-19T08:50:25;62221.94;;;-147.04;49.96
39075;BME280;24826;52.070;20.970;2023-04-19T08:53:10;62267.69;;;-147.04;49.99
39075;BME280;24826;52.070;20.970;2023-04-19T08:55:54;62263.72;;;-147.04;49.96
39075;BME280;24826;52.070;20.970;2023-04-19T08:58:41;62251.78;;;-147.04;50.01
39075;BME280;24826;52.070;20.970;2023-04-19T09:01:26;62255.75;;;-147.04;49.96
39075;BME280;24826;52.070;20.970;2023-04-19T09:04:10;62241.84;;;-147.04;49.86
39075;BME280;24826;52.070;20.970;2023-04-19T09:06:55;62257.75;;;-147.04;49.99
39075;BME280;24826;52.070;20.970;2023-04-19T09:09:39;62301.50;;;-147.04;50.01
39075;BME280;24826;52.070;20.970;2023-04-19T09:12:26;62291.56;;;-147.04;49.93
39075;BME280;24826;52.070;20.970;2023-04-19T09:15:10;62279.63;;;-147.04;50.00
39075;BME280;24826;52.070;20.970;2023-04-19T09:18:06;62277.63;;;-147.04;49.93
39075;BME280;24826;52.070;20.970;2023-04-19T09:20:50;62271.66;;;-147.04;49.96
39075;BME280;24826;52.070;20.970;2023-04-19T09:23:45;62231.91;;;-147.04;49.99
39075;BME280;24826;52.070;20.970;2023-04-19T09:26:30;62267.69;;;-147.04;49.77
39075;BME280;24826;52.070;20.970;2023-04-19T09:29:15;62239.84;;;-147.04;49.98
39075;BME280;24826;52.070;20.970;2023-04-19T09:32:01;62313.44;;;-147.04;49.73
39075;BME280;24826;52.070;20.970;2023-04-19T09:37:36;62295.53;;;-147.04;49.78
39075;BME280;24826;52.070;20.970;2023-04-19T09:40:23;62303.50;;;-147.04;49.81
39075;BME280;24826;52.070;20.970;2023-04-19T09:43:08;62271.66;;;-147.04;49.72
39075;BME280;24826;52.070;20.970;2023-04-19T09:45:53;62251.78;;;-147.04;49.77
39075;BME280;24826;52.070;20.970;2023-04-19T09:48:37;62267.69;;;-147.04;49.84
39075;BME280;24826;52.070;20.970;2023-04-19T09:51:21;62263.72;;;-147.04;49.92
39075;BME280;24826;52.070;20.970;2023-04-19T09:54:06;62265.72;;;-147.04;49.77
39075;BME280;24826;52.070;20.970;2023-04-19T09:56:51;62273.66;;;-147.04;49.91
39075;BME280;24826;52.070;20.970;2023-04-19T09:59:36;62315.44;;;-147.04;49.89
39075;BME280;24826;52.070;20.970;2023-04-19T10:02:21;62259.75;;;-147.04;49.76
39075;BME280;24826;52.070;20.970;2023-04-19T10:05:08;62299.53;;;-147.04;49.93
39075;BME280;24826;52.070;20.970;2023-04-19T10:07:54;62251.78;;;-147.04;49.93
39075;BME280;24826;52.070;20.970;2023-04-19T10:10:40;62277.63;;;-147.04;49.92
39075;BME280;24826;52.070;20.970;2023-04-19T10:13:25;62251.78;;;-147.04;49.84
39075;BME280;24826;52.070;20.970;2023-04-19T10:16:10;62263.72;;;-147.04;49.89
39075;BME280;24826;52.070;20.970;2023-04-19T10:18:54;62279.63;;;-147.04;49.84
39075;BME280;24826;52.070;20.970;2023-04-19T10:21:41;62279.63;;;-147.04;49.80
39075;BME280;24826;52.070;20.970;2023-04-19T10:24:25;62303.50;;;-147.04;49.91
39075;BME280;24826;52.070;20.970;2023-04-19T10:27:13;62275.66;;;-147.04;49.93
39075;BME280;24826;52.070;20.970;2023-04-19T10:29:59;62295.53;;;-147.04;49.85
39075;BME280;24826;52.070;20.970;2023-04-19T10:32:51;62267.69;;;-147.04;49.84
39075;BME280;24826;52.070;20.970;2023-04-19T10:35:37;62293.56;;;-147.04;49.96
39075;BME280;24826;52.070;20.970;2023-04-19T10:38:38;62289.56;;;-147.04;49.92
39075;BME280;24826;52.070;20.970;2023-04-19T10:42:05;62251.78;;;-147.04;49.93
39075;BME280;24826;52.070;20.970;2023-04-19T10:51:20;62192.13;;;-147.04;49.85
39075;BME280;24826;52.070;20.970;2023-04-19T10:54:07;62291.56;;;-147.04;49.92
39075;BME280;24826;52.070;20.970;2023-04-19T10:57:08;62255.75;;;-147.04;49.88
39075;BME280;24826;52.070;20.970;2023-04-19T11:00:18;62275.66;;;-147.04;49.93
39075;BME280;24826;52.070;20.970;2023-04-19T11:06:25;62239.84;;;-147.04;49.93
39075;BME280;24826;52.070;20.970;2023-04-19T11:09:30;62261.72;;;-147.04;49.84
39075;BME280;24826;52.070;20.970;2023-04-19T11:12:18;62283.59;;;-147.04;49.80
39075;BME280;24826;52.070;20.970;2023-04-19T11:15:04;62275.66;;;-147.04;49.96
39075;BME280;24826;52.070;20.970;2023-04-19T11:17:50;62275.66;;;-147.04;49.88
39075;BME280;24826;52.070;20.970;2023-04-19T11:20:37;62283.59;;;-147.04;49.83
39075;BME280;24826;52.070;20.970;2023-04-19T11:23:26;62291.56;;;-147.04;49.99
39075;BME280;24826;52.070;20.970;2023-04-19T11:26:11;62235.88;;;-147.04;49.90
39075;BME280;24826;52.070;20.970;2023-04-19T11:28:55;62263.72;;;-147.04;49.99
39075;BME280;24826;52.070;20.970;2023-04-19T11:31:43;62263.72;;;-147.04;49.88
39075;BME280;24826;52.070;20.970;2023-04-19T11:34:27;62297.53;;;-147.04;50.05
39075;BME280;24826;52.070;20.970;2023-04-19T11:37:12;62283.59;;;-147.04;49.77
39075;BME280;24826;52.070;20.970;2023-04-19T11:39:56;62287.59;;;-147.04;49.48
39075;BME280;24826;52.070;20.970;2023-04-19T11:42:41;62271.66;;;-147.04;49.70
39075;BME280;24826;52.070;20.970;2023-04-19T11:45:33;62287.59;;;-147.04;49.82
39075;BME280;24826;52.070;20.970;2023-04-19T11:48:19;62287.59;;;-147.04;49.77
39075;BME280;24826;52.070;20.970;2023-04-19T11:51:04;62279.63;;;-147.04;49.77
39075;BME280;24826;52.070;20.970;2023-04-19T11:53:49;62307.47;;;-147.04;49.78
39075;BME280;24826;52.070;20.970;2023-04-19T11:56:33;62245.81;;;-147.04;49.60
39075;BME280;24826;52.070;20.970;2023-04-19T11:59:17;62273.66;;;-147.04;49.67
39075;BME280;24826;52.070;20.970;2023-04-19T12:02:08;62323.38;;;-147.04;49.62
39075;BME280;24826;52.070;20.970;2023-04-19T12:04:54;62295.53;;;-147.04;49.53
39075;BME280;24826;52.070;20.970;2023-04-19T12:10:55;62279.63;;;-147.04;49.64
39075;BME280;24826;52.070;20.970;2023-04-19T12:13:40;62303.50;;;-147.04;49.57
39075;BME280;24826;52.070;20.970;2023-04-19T12:16:27;62275.66;;;-147.04;49.62
39075;BME280;24826;52.070;20.970;2023-04-19T12:19:12;62281.63;;;-147.04;49.69
39075;BME280;24826;52.070;20.970;2023-04-19T12:22:06;62279.63;;;-147.04;49.67
39075;BME280;24826;52.070;20.970;2023-04-19T12:24:52;62299.53;;;-147.04;49.94
39075;BME280;24826;52.070;20.970;2023-04-19T12:27:39;62315.44;;;-147.04;49.82
39075;BME280;24826;52.070;20.970;2023-04-19T12:30:24;62406.91;;;-147.04;49.80
39075;BME280;24826;52.070;20.970;2023-04-19T12:33:09;62283.59;;;-147.04;49.93
39075;BME280;24826;52.070;20.970;2023-04-19T12:35:53;62281.63;;;-147.04;49.88
39075;BME280;24826;52.070;20.970;2023-04-19T12:38:38;62257.75;;;-147.04;49.89
39075;BME280;24826;52.070;20.970;2023-04-19T12:41:22;62287.59;;;-147.04;49.91
39075;BME280;24826;52.070;20.970;2023-04-19T12:44:07;62291.56;;;-147.04;50.00
39075;BME280;24826;52.070;20.970;2023-04-19T12:46:51;62279.63;;;-147.04;49.93
39075;BME280;24826;52.070;20.970;2023-04-19T12:49:40;62259.75;;;-147.04;49.88
39075;BME280;24826;52.070;20.970;2023-04-19T12:52:25;62273.66;;;-147.04;50.11
39075;BME280;24826;52.070;20.970;2023-04-19T12:55:10;62287.59;;;-147.04;49.91
39075;BME280;24826;52.070;20.970;2023-04-19T12:57:54;62287.59;;;-147.04;49.93
39075;BME280;24826;52.070;20.970;2023-04-19T13:00:39;62287.59;;;-147.04;49.92
39075;BME280;24826;52.070;20.970;2023-04-19T13:03:23;62271.66;;;-147.04;49.92
39075;BME280;24826;52.070;20.970;2023-04-19T13:06:07;62263.72;;;-147.04;49.93
39075;BME280;24826;52.070;20.970;2023-04-19T13:08:52;62283.59;;;-147.04;49.96
39075;BME280;24826;52.070;20.970;2023-04-19T13:11:36;62271.66;;;-147.04;49.85
39075;BME280;24826;52.070;20.970;2023-04-19T13:14:21;62295.53;;;-147.04;49.87
39075;BME280;24826;52.070;20.970;2023-04-19T13:17:06;62297.53;;;-147.04;49.99
39075;BME280;24826;52.070;20.970;2023-04-19T13:19:50;62285.59;;;-147.04;50.07
39075;BME280;24826;52.070;20.970;2023-04-19T13:22:35;62269.69;;;-147.04;50.04
39075;BME280;24826;52.070;20.970;2023-04-19T13:25:19;62273.66;;;-147.04;49.92
39075;BME280;24826;52.070;20.970;2023-04-19T13:28:04;62257.75;;;-147.04;50.07
39075;BME280;24826;52.070;20.970;2023-04-19T13:30:48;62255.75;;;-147.04;49.97
39075;BME280;24826;52.070;20.970;2023-04-19T13:33:33;62267.69;;;-147.04;49.99
39075;BME280;24826;52.070;20.970;2023-04-19T13:36:17;62247.81;;;-147.04;50.09
39075;BME280;24826;52.070;20.970;2023-04-19T13:39:02;62275.66;;;-147.04;49.94
39075;BME280;24826;52.070;20.970;2023-04-19T13:41:47;62269.69;;;-147.04;50.00
39075;BME280;24826;52.070;20.970;2023-04-19T13:44:31;62291.56;;;-147.04;49.92
39075;BME280;24826;52.070;20.970;2023-04-19T13:47:15;62287.59;;;-147.04;49.94
39075;BME280;24826;52.070;20.970;2023-04-19T13:50:00;62299.53;;;-147.04;49.91
39075;BME280;24826;52.070;20.970;2023-04-19T13:52:45;62275.66;;;-147.04;50.02
39075;BME280;24826;52.070;20.970;2023-04-19T13:55:29;62271.66;;;-147.04;49.93
39075;BME280;24826;52.070;20.970;2023-04-19T13:58:13;62271.66;;;-147.04;49.99
39075;BME280;24826;52.070;20.970;2023-04-19T14:00:58;62289.56;;;-147.04;50.04
39075;BME280;24826;52.070;20.970;2023-04-19T14:03:43;62257.75;;;-147.04;50.02
39075;BME280;24826;52.070;20.970;2023-04-19T14:06:27;62271.66;;;-147.04;50.04
39075;BME280;24826;52.070;20.970;2023-04-19T14:09:12;62289.56;;;-147.04;49.85
39075;BME280;24826;52.070;20.970;2023-04-19T14:11:56;62259.75;;;-147.04;49.88
39075;BME280;24826;52.070;20.970;2023-04-19T14:14:40;62283.59;;;-147.04;49.92
39075;BME280;24826;52.070;20.970;2023-04-19T14:17:25;62283.59;;;-147.04;49.95
39075;BME280;24826;52.070;20.970;2023-04-19T14:20:09;62265.72;;;-147.04;49.91